createdAt,value
2023-05-23T00:00:15.649Z,10.63
2023-05-23T00:02:43.008Z,10.20
2023-05-23T00:05:10.049Z,9.80
2023-05-23T00:07:37.179Z,10.30
2023-05-23T00:10:04.609Z,10.57
2023-05-23T00:12:31.355Z,10.67
2023-05-23T00:14:58.060Z,11.13
2023-05-23T00:17:26.366Z,9.67
2023-05-23T00:19:53.177Z,10.90
2023-05-23T00:22:20.163Z,11.90
2023-05-23T00:24:46.878Z,12.33
2023-05-23T00:27:13.656Z,13.30
2023-05-23T00:29:40.440Z,12.40
2023-05-23T00:32:07.477Z,9.83
2023-05-23T00:34:34.524Z,11.30
2023-05-23T00:37:02.235Z,12.63
2023-05-23T00:39:29.261Z,10.40
2023-05-23T00:41:56.422Z,10.50
2023-05-23T00:44:23.307Z,12.53
2023-05-23T00:46:56.172Z,10.87
2023-05-23T00:49:23.502Z,10.10
2023-05-23T00:51:52.026Z,10.93
2023-05-23T00:54:23.968Z,13.27
2023-05-23T00:56:51.362Z,10.57
2023-05-23T00:59:18.341Z,10.90
2023-05-23T01:01:47.351Z,14.07
2023-05-23T01:04:16.682Z,11.83
2023-05-23T01:06:47.098Z,10.33
2023-05-23T01:09:18.552Z,11.47
2023-05-23T01:12:06.248Z,10.70
2023-05-23T01:14:40.445Z,10.63
2023-05-23T01:17:24.326Z,11.93
2023-05-23T01:20:14.163Z,11.87
2023-05-23T01:22:50.610Z,11.93
2023-05-23T01:25:45.752Z,10.90
2023-05-23T01:28:20.137Z,11.27
2023-05-23T01:30:48.270Z,8.57
2023-05-23T01:33:17.747Z,9.00
2023-05-23T01:35:45.055Z,12.77
2023-05-23T01:38:11.986Z,9.57
2023-05-23T01:40:38.783Z,10.10
2023-05-23T01:43:05.592Z,8.20
2023-05-23T01:45:32.532Z,9.30
2023-05-23T01:48:00.939Z,8.67
2023-05-23T01:50:28.260Z,7.70
2023-05-23T01:52:56.366Z,6.47
2023-05-23T01:55:26.447Z,7.13
2023-05-23T01:57:57.887Z,4.80
2023-05-23T02:00:25.145Z,4.97
2023-05-23T02:02:52.009Z,4.57
2023-05-23T02:05:18.856Z,5.43
2023-05-23T02:07:45.713Z,5.13
2023-05-23T02:10:12.947Z,8.17
2023-05-23T02:12:39.771Z,4.43
2023-05-23T02:15:07.575Z,4.33
2023-05-23T02:17:34.441Z,4.63
2023-05-23T02:20:01.184Z,4.30
2023-05-23T02:22:28.029Z,4.43
2023-05-23T02:24:54.723Z,5.63
2023-05-23T02:27:21.544Z,4.17
2023-05-23T02:29:48.297Z,4.33
2023-05-23T02:32:15.092Z,5.53
2023-05-23T02:34:41.876Z,5.17
2023-05-23T02:37:08.660Z,4.20
2023-05-23T02:39:36.397Z,4.43
2023-05-23T02:42:04.608Z,5.40
2023-05-23T02:44:31.557Z,5.37
2023-05-23T02:46:58.265Z,5.27
2023-05-23T02:49:24.993Z,5.27
2023-05-23T02:51:51.785Z,4.90
2023-05-23T02:54:18.814Z,4.50
2023-05-23T02:56:46.686Z,5.00
2023-05-23T02:59:13.690Z,4.90
2023-05-23T03:01:40.661Z,5.47
2023-05-23T03:04:07.544Z,5.27
2023-05-23T03:06:36.666Z,5.10
2023-05-23T03:09:03.911Z,5.93
2023-05-23T03:11:30.743Z,6.43
2023-05-23T03:13:57.432Z,5.80
2023-05-23T03:16:24.496Z,7.03
2023-05-23T03:18:51.329Z,5.90
2023-05-23T03:21:18.067Z,5.67
2023-05-23T03:23:44.745Z,5.80
2023-05-23T03:26:11.767Z,6.00
2023-05-23T03:28:38.510Z,6.10
2023-05-23T03:31:05.271Z,7.20
2023-05-23T03:33:32.055Z,7.83
2023-05-23T03:35:58.836Z,7.77
2023-05-23T03:38:26.067Z,10.67
2023-05-23T03:40:52.791Z,8.47
2023-05-23T03:43:19.706Z,6.73
2023-05-23T03:45:47.369Z,7.57
2023-05-23T03:48:14.155Z,9.77
2023-05-23T03:50:40.896Z,7.50
2023-05-23T03:53:07.697Z,9.30
2023-05-23T03:55:34.457Z,10.60
2023-05-23T03:58:01.170Z,12.00
2023-05-23T04:00:28.217Z,10.93
2023-05-23T04:02:55.051Z,12.93
2023-05-23T04:05:21.777Z,7.70
2023-05-23T04:07:49.057Z,7.97
2023-05-23T04:10:15.774Z,11.03
2023-05-23T04:12:42.891Z,9.43
2023-05-23T04:15:10.094Z,10.43
2023-05-23T04:17:38.953Z,10.60
2023-05-23T04:20:10.124Z,11.73
2023-05-23T04:22:37.117Z,10.40
2023-05-23T04:25:04.317Z,10.17
2023-05-23T04:27:31.114Z,8.27
2023-05-23T04:29:58.719Z,10.53
2023-05-23T04:32:26.195Z,8.37
2023-05-23T04:34:53.096Z,9.77
2023-05-23T04:37:25.974Z,12.93
2023-05-23T04:39:53.602Z,8.10
2023-05-23T04:42:24.479Z,10.50
2023-05-23T04:44:52.741Z,9.07
2023-05-23T04:47:19.541Z,8.70
2023-05-23T04:49:46.361Z,11.37
2023-05-23T04:52:13.455Z,9.10
2023-05-23T04:54:44.643Z,8.20
2023-05-23T04:57:12.403Z,9.57
2023-05-23T04:59:39.363Z,8.50
2023-05-23T05:02:06.765Z,7.43
2023-05-23T05:04:33.501Z,9.10
2023-05-23T05:07:00.577Z,10.60
2023-05-23T05:09:27.372Z,9.20
2023-05-23T05:11:54.116Z,6.90
2023-05-23T05:14:20.919Z,11.93
2023-05-23T05:16:48.698Z,7.27
2023-05-23T05:19:15.726Z,10.87
2023-05-23T05:21:42.540Z,12.00
2023-05-23T05:24:12.845Z,9.00
2023-05-23T05:26:39.657Z,8.60
2023-05-23T05:29:06.367Z,9.83
2023-05-23T05:31:33.323Z,10.40
2023-05-23T05:34:00.231Z,8.37
2023-05-23T05:36:27.017Z,11.97
2023-05-23T05:38:53.806Z,10.67
2023-05-23T05:41:20.571Z,9.20
2023-05-23T05:43:47.303Z,9.57
2023-05-23T05:46:14.075Z,9.77
2023-05-23T05:48:40.983Z,9.33
2023-05-23T05:51:07.706Z,10.20
2023-05-23T05:53:34.430Z,12.00
2023-05-23T05:56:02.100Z,9.70
2023-05-23T05:58:28.855Z,8.77
2023-05-23T06:00:56.250Z,10.70
2023-05-23T06:03:24.556Z,11.40
2023-05-23T06:05:51.373Z,10.03
2023-05-23T06:08:18.193Z,11.97
2023-05-23T06:10:44.938Z,10.27
2023-05-23T06:13:11.692Z,10.10
2023-05-23T06:15:38.468Z,11.77
2023-05-23T06:18:05.333Z,16.33
2023-05-23T06:20:32.103Z,10.77
2023-05-23T06:23:00.318Z,14.63
2023-05-23T06:25:27.548Z,10.77
2023-05-23T06:27:54.278Z,14.23
2023-05-23T06:30:22.308Z,11.17
2023-05-23T06:32:49.108Z,9.87
2023-05-23T06:35:15.886Z,13.43
2023-05-23T06:37:45.671Z,11.43
2023-05-23T06:40:14.410Z,13.87
2023-05-23T06:42:41.832Z,13.40
2023-05-23T06:45:09.625Z,12.40
2023-05-23T06:47:36.436Z,14.00
2023-05-23T06:50:04.134Z,15.30
2023-05-23T06:52:30.830Z,13.13
2023-05-23T06:54:57.573Z,15.03
2023-05-23T06:57:24.294Z,14.17
2023-05-23T06:59:51.165Z,13.83
2023-05-23T07:02:17.990Z,13.50
2023-05-23T07:04:44.734Z,13.90
2023-05-23T07:07:11.487Z,12.57
2023-05-23T07:09:39.297Z,12.27
2023-05-23T07:12:07.153Z,10.87
2023-05-23T07:14:35.718Z,9.50
2023-05-23T07:17:02.543Z,13.97
2023-05-23T07:19:29.532Z,9.60
2023-05-23T07:21:56.499Z,8.93
2023-05-23T07:24:25.318Z,9.93
2023-05-23T07:26:52.308Z,14.03
2023-05-23T07:29:19.325Z,10.50
2023-05-23T07:31:46.148Z,12.10
2023-05-23T07:34:12.912Z,9.33
2023-05-23T07:36:40.845Z,10.03
2023-05-23T07:39:07.656Z,11.03
2023-05-23T07:41:34.436Z,10.10
2023-05-23T07:44:01.174Z,9.63
2023-05-23T07:46:27.912Z,10.70
2023-05-23T07:48:55.362Z,10.40
2023-05-23T07:51:22.247Z,9.43
2023-05-23T07:53:48.926Z,12.93
2023-05-23T07:56:15.843Z,10.00
2023-05-23T07:58:42.520Z,10.37
2023-05-23T08:01:09.245Z,10.27
2023-05-23T08:03:36.014Z,10.33
2023-05-23T08:06:02.768Z,10.10
2023-05-23T08:08:29.516Z,10.47
2023-05-23T08:10:56.258Z,8.47
2023-05-23T08:13:23.034Z,9.57
2023-05-23T08:15:49.894Z,11.00
2023-05-23T08:18:16.903Z,13.07
2023-05-23T08:20:43.883Z,8.87
2023-05-23T08:23:12.497Z,9.17
2023-05-23T08:25:39.522Z,7.40
2023-05-23T08:28:06.260Z,7.53
2023-05-23T08:30:33.738Z,9.50
2023-05-23T08:33:00.900Z,9.10
2023-05-23T08:35:29.369Z,7.87
2023-05-23T08:37:58.134Z,8.27
2023-05-23T08:40:26.980Z,11.00
2023-05-23T08:42:53.779Z,10.67
2023-05-23T08:45:20.873Z,10.13
2023-05-23T08:47:47.829Z,9.40
2023-05-23T08:50:16.743Z,12.03
2023-05-23T08:52:58.382Z,11.03
2023-05-23T08:55:27.291Z,17.03
2023-05-23T08:58:01.666Z,10.83
2023-05-23T09:00:28.707Z,14.67
2023-05-23T09:02:56.627Z,11.20
2023-05-23T09:05:23.789Z,12.30
2023-05-23T09:07:51.851Z,11.67
2023-05-23T09:10:22.414Z,13.23
2023-05-23T09:12:49.758Z,13.33
2023-05-23T09:15:17.282Z,13.17
2023-05-23T09:17:45.061Z,9.53
2023-05-23T09:20:16.900Z,11.27
2023-05-23T09:22:50.134Z,11.13
2023-05-23T09:25:17.021Z,13.93
2023-05-23T09:27:47.447Z,16.70
2023-05-23T09:30:15.257Z,19.57
2023-05-23T09:32:42.532Z,21.17
2023-05-23T09:35:14.031Z,19.17
2023-05-23T09:37:46.039Z,23.33
2023-05-23T09:40:14.678Z,23.30
2023-05-23T09:42:48.861Z,24.20
2023-05-23T09:45:17.110Z,30.77
2023-05-23T09:47:54.132Z,34.10
2023-05-23T09:50:21.598Z,35.97
2023-05-23T09:52:48.477Z,39.23
2023-05-23T09:55:15.527Z,33.10
2023-05-23T09:57:43.982Z,31.33
2023-05-23T10:00:12.751Z,25.60
2023-05-23T10:03:00.648Z,27.97
2023-05-23T10:05:42.404Z,30.30
2023-05-23T10:08:14.302Z,33.63
2023-05-23T10:11:02.935Z,38.70
2023-05-23T10:13:32.011Z,40.33
2023-05-23T10:16:27.654Z,38.47
2023-05-23T10:19:01.372Z,32.77
2023-05-23T10:21:33.530Z,30.70
2023-05-23T10:24:01.136Z,37.27
2023-05-23T10:26:28.560Z,31.40
2023-05-23T10:28:56.125Z,28.67
2023-05-23T10:31:24.812Z,28.50
2023-05-23T10:34:00.548Z,25.03
2023-05-23T10:36:40.603Z,18.77
2023-05-23T10:39:19.819Z,18.97
2023-05-23T10:41:55.869Z,17.87
2023-05-23T10:44:30.155Z,19.60
2023-05-23T10:47:01.134Z,17.00
2023-05-23T10:49:52.452Z,15.97
2023-05-23T10:52:19.358Z,14.90
2023-05-23T10:54:52.781Z,18.03
2023-05-23T10:57:21.949Z,19.97
2023-05-23T10:59:52.075Z,27.13
2023-05-23T11:02:25.191Z,26.57
2023-05-23T11:05:18.458Z,26.43
2023-05-23T11:07:45.326Z,28.07
2023-05-23T11:10:17.175Z,30.20
2023-05-23T11:12:44.800Z,28.97
2023-05-23T11:15:45.090Z,27.97
2023-05-23T11:18:23.809Z,22.87
2023-05-23T11:20:54.791Z,26.20
2023-05-23T11:23:22.621Z,19.00
2023-05-23T11:25:51.457Z,20.80
2023-05-23T11:28:18.824Z,14.87
2023-05-23T11:30:48.889Z,21.27
2023-05-23T11:33:17.206Z,21.93
2023-05-23T11:35:47.981Z,24.63
2023-05-23T11:38:16.699Z,25.70
2023-05-23T11:40:46.330Z,24.40
2023-05-23T11:43:17.968Z,21.53
2023-05-23T11:45:48.254Z,22.20
2023-05-23T11:48:17.058Z,25.40
2023-05-23T11:50:52.241Z,25.13
2023-05-23T11:53:21.814Z,27.07
2023-05-23T11:55:54.958Z,23.77
2023-05-23T11:58:34.086Z,23.63
2023-05-23T12:01:04.980Z,20.67
2023-05-23T12:03:32.057Z,24.20
2023-05-23T12:05:59.307Z,17.83
2023-05-23T12:08:26.121Z,18.45
2023-05-23T12:10:54.564Z,16.13
2023-05-23T12:13:25.048Z,18.70
2023-05-23T12:16:02.015Z,18.20
2023-05-23T12:18:30.701Z,18.00
2023-05-23T12:21:05.990Z,14.50
2023-05-23T12:23:34.872Z,18.70
2023-05-23T12:26:06.860Z,22.50
2023-05-23T12:28:43.253Z,19.10
2023-05-23T12:31:10.484Z,19.63
2023-05-23T12:33:45.333Z,20.13
2023-05-23T12:36:12.427Z,16.73
2023-05-23T12:38:40.912Z,13.03
2023-05-23T12:41:09.485Z,13.97
2023-05-23T12:43:51.765Z,14.00
2023-05-23T12:46:22.406Z,21.00
2023-05-23T12:48:49.965Z,16.13
2023-05-23T12:51:17.171Z,16.83
2023-05-23T12:53:44.641Z,14.57
2023-05-23T12:56:12.274Z,15.97
2023-05-23T12:58:39.296Z,18.20
2023-05-23T13:01:06.188Z,18.90
2023-05-23T13:03:33.049Z,18.43
2023-05-23T13:05:59.931Z,18.03
2023-05-23T13:08:30.126Z,13.03
2023-05-23T13:10:57.265Z,15.00
2023-05-23T13:13:24.747Z,18.10
2023-05-23T13:15:51.908Z,15.27
2023-05-23T13:18:19.008Z,14.10
2023-05-23T13:20:46.516Z,15.30
2023-05-23T13:23:13.637Z,18.33
2023-05-23T13:25:41.152Z,16.83
2023-05-23T13:28:08.374Z,13.60
2023-05-23T13:30:35.281Z,11.87
2023-05-23T13:33:02.314Z,12.33
2023-05-23T13:35:29.084Z,11.77
2023-05-23T13:37:55.896Z,12.87
2023-05-23T13:40:23.787Z,10.47
2023-05-23T13:42:51.530Z,13.77
2023-05-23T13:45:19.466Z,15.17
2023-05-23T13:47:46.639Z,15.07
2023-05-23T13:50:13.629Z,16.37
2023-05-23T13:52:44.127Z,12.33
2023-05-23T13:55:11.745Z,11.63
2023-05-23T13:57:38.499Z,13.37
2023-05-23T14:00:05.849Z,16.53
2023-05-23T14:02:32.737Z,11.37
2023-05-23T14:04:59.541Z,13.37
2023-05-23T14:07:26.331Z,11.10
2023-05-23T14:09:53.003Z,11.93
2023-05-23T14:12:19.826Z,11.10
2023-05-23T14:14:46.580Z,12.40
2023-05-23T14:17:16.828Z,12.97
2023-05-23T14:19:43.980Z,14.00
2023-05-23T14:22:11.404Z,12.43
2023-05-23T14:24:38.219Z,11.37
2023-05-23T14:27:05.154Z,12.23
2023-05-23T14:29:31.867Z,12.20
2023-05-23T14:32:00.836Z,16.17
2023-05-23T14:34:27.678Z,13.73
2023-05-23T14:36:54.505Z,12.10
2023-05-23T14:39:21.353Z,15.00
2023-05-23T14:41:48.166Z,13.80
2023-05-23T14:44:14.942Z,13.63
2023-05-23T14:46:42.710Z,12.90
2023-05-23T14:49:09.421Z,13.07
2023-05-23T14:54:09.570Z,14.47
2023-05-23T14:56:37.710Z,15.50
2023-05-23T14:59:05.667Z,10.67
2023-05-23T15:01:32.916Z,11.20
2023-05-23T15:04:00.285Z,12.20
2023-05-23T15:06:27.163Z,13.90
2023-05-23T15:08:53.924Z,14.23
2023-05-23T15:11:21.521Z,15.93
2023-05-23T15:13:48.306Z,13.10
2023-05-23T15:16:16.136Z,13.73
2023-05-23T15:18:42.942Z,13.60
2023-05-23T15:21:10.651Z,15.13
2023-05-23T15:23:37.340Z,13.10
2023-05-23T15:26:04.165Z,13.67
2023-05-23T15:28:30.881Z,17.27
2023-05-23T15:30:59.060Z,11.77
2023-05-23T15:33:26.100Z,11.80
2023-05-23T15:35:53.825Z,16.37
2023-05-23T15:38:20.657Z,15.30
2023-05-23T15:40:48.790Z,16.10
2023-05-23T15:43:15.743Z,17.27
2023-05-23T15:45:42.595Z,14.87
2023-05-23T15:48:09.519Z,13.00
2023-05-23T15:50:36.298Z,11.93
2023-05-23T15:53:03.041Z,14.23
2023-05-23T15:55:29.784Z,15.10
2023-05-23T15:57:56.489Z,15.87
2023-05-23T16:00:23.401Z,13.77
2023-05-23T16:02:50.159Z,11.90
2023-05-23T16:05:17.055Z,10.67
2023-05-23T16:07:44.075Z,15.83
2023-05-23T16:10:11.309Z,11.60
2023-05-23T16:12:38.044Z,10.53
2023-05-23T16:15:05.222Z,18.80
2023-05-23T16:17:31.966Z,14.73
2023-05-23T16:19:58.754Z,12.70
2023-05-23T16:22:25.620Z,15.93
2023-05-23T16:24:53.431Z,12.23
2023-05-23T16:27:21.862Z,14.73
2023-05-23T16:29:48.578Z,10.27
2023-05-23T16:32:16.951Z,14.47
2023-05-23T16:34:46.926Z,12.13
2023-05-23T16:37:16.385Z,10.83
2023-05-23T16:39:43.106Z,12.93
2023-05-23T16:42:09.891Z,12.00
2023-05-23T16:44:36.716Z,9.53
2023-05-23T16:47:03.536Z,9.63
2023-05-23T16:49:30.380Z,9.77
2023-05-23T16:51:57.110Z,11.27
2023-05-23T16:54:23.947Z,11.40
2023-05-23T16:56:50.860Z,12.57
2023-05-23T16:59:18.042Z,10.10
2023-05-23T17:01:44.882Z,14.57
2023-05-23T17:04:11.702Z,10.27
2023-05-23T17:06:38.415Z,12.53
2023-05-23T17:09:05.444Z,13.77
2023-05-23T17:11:32.173Z,12.70
2023-05-23T17:13:58.902Z,11.10
2023-05-23T17:16:25.720Z,12.37
2023-05-23T17:18:52.537Z,11.60
2023-05-23T17:21:19.384Z,8.70
2023-05-23T17:23:46.197Z,10.53
2023-05-23T17:26:13.067Z,8.33
2023-05-23T17:28:39.751Z,10.43
2023-05-23T17:31:06.612Z,10.93
2023-05-23T17:33:33.371Z,12.83
2023-05-23T17:36:00.135Z,9.60
2023-05-23T17:38:26.945Z,9.90
2023-05-23T17:40:53.958Z,11.17
2023-05-23T17:43:20.831Z,10.70
2023-05-23T17:45:47.704Z,10.43
2023-05-23T17:48:15.709Z,14.10
2023-05-23T17:50:44.184Z,15.77
2023-05-23T17:53:11.189Z,11.93
2023-05-23T17:55:37.992Z,15.43
2023-05-23T17:58:04.918Z,17.67
2023-05-23T18:00:31.722Z,13.50
2023-05-23T18:02:58.613Z,9.67
2023-05-23T18:05:25.694Z,14.60
2023-05-23T18:07:52.606Z,10.20
2023-05-23T18:10:19.626Z,11.13
2023-05-23T18:12:46.449Z,9.00
2023-05-23T18:15:13.357Z,11.03
2023-05-23T18:17:40.502Z,13.87
2023-05-23T18:20:08.013Z,15.57
2023-05-23T18:22:34.804Z,13.93
2023-05-23T18:25:01.637Z,11.73
2023-05-23T18:27:28.381Z,12.53
2023-05-23T18:29:55.104Z,17.03
2023-05-23T18:32:22.000Z,17.80
2023-05-23T18:34:48.891Z,14.57
2023-05-23T18:37:15.837Z,12.17
2023-05-23T18:39:42.601Z,12.23
2023-05-23T18:42:09.358Z,13.33
2023-05-23T18:44:36.361Z,15.07
2023-05-23T18:47:03.265Z,12.63
2023-05-23T18:49:29.974Z,14.93
2023-05-23T18:51:56.719Z,11.50
2023-05-23T18:54:23.797Z,11.27
2023-05-23T18:56:50.492Z,13.27
2023-05-23T18:59:17.619Z,12.57
2023-05-23T19:01:44.399Z,14.83
2023-05-23T19:04:11.485Z,9.07
2023-05-23T19:06:38.349Z,8.80
2023-05-23T19:09:09.509Z,11.90
2023-05-23T19:11:43.052Z,11.73
2023-05-23T19:14:09.929Z,13.10
2023-05-23T19:16:37.837Z,11.80
2023-05-23T19:19:04.583Z,13.47
2023-05-23T19:21:31.854Z,10.17
2023-05-23T19:23:58.569Z,14.53
2023-05-23T19:26:25.504Z,11.60
2023-05-23T19:28:53.051Z,12.90
2023-05-23T19:31:19.775Z,16.93
2023-05-23T19:33:46.593Z,15.27
2023-05-23T19:36:13.426Z,9.10
2023-05-23T19:38:40.221Z,13.70
2023-05-23T19:41:06.939Z,12.43
2023-05-23T19:43:33.615Z,10.63
2023-05-23T19:46:00.440Z,10.23
2023-05-23T19:48:27.182Z,11.43
2023-05-23T19:50:53.948Z,11.60
2023-05-23T19:53:22.417Z,9.33
2023-05-23T19:55:49.691Z,11.70
2023-05-23T19:58:16.446Z,11.87
2023-05-23T20:00:43.459Z,10.17
2023-05-23T20:03:10.411Z,9.77
2023-05-23T20:05:37.265Z,10.87
2023-05-23T20:08:04.129Z,15.27
2023-05-23T20:10:30.843Z,10.60
2023-05-23T20:12:57.582Z,12.87
2023-05-23T20:15:38.622Z,11.90
2023-05-23T20:18:07.899Z,11.33
2023-05-23T20:20:34.867Z,11.87
2023-05-23T20:23:01.564Z,15.13
2023-05-23T20:25:28.556Z,10.40
2023-05-23T20:27:58.097Z,10.40
2023-05-23T20:30:25.309Z,12.60
2023-05-23T20:32:54.024Z,12.70
2023-05-23T20:35:24.015Z,11.20
2023-05-23T20:37:53.813Z,9.90
2023-05-23T20:40:22.247Z,10.73
2023-05-23T20:42:49.751Z,13.57
2023-05-23T20:45:16.596Z,13.57
2023-05-23T20:47:43.676Z,10.17
2023-05-23T20:50:12.611Z,11.27
2023-05-23T20:52:41.446Z,12.93
2023-05-23T20:55:09.170Z,14.67
2023-05-23T20:57:36.888Z,11.10
2023-05-23T21:00:13.286Z,10.90
2023-05-23T21:02:41.247Z,10.97
2023-05-23T21:05:09.538Z,10.77
2023-05-23T21:07:36.366Z,10.97
2023-05-23T21:10:03.825Z,12.50
2023-05-23T21:12:30.670Z,11.13
2023-05-23T21:14:57.451Z,9.63
2023-05-23T21:17:24.858Z,13.40
2023-05-23T21:19:51.824Z,11.00
2023-05-23T21:22:18.522Z,10.70
2023-05-23T21:24:45.252Z,9.40
2023-05-23T21:27:12.386Z,8.03
2023-05-23T21:29:39.098Z,14.30
2023-05-23T21:32:05.961Z,11.77
2023-05-23T21:34:32.731Z,10.07
2023-05-23T21:36:59.478Z,8.27
2023-05-23T21:39:28.805Z,10.10
2023-05-23T21:42:00.373Z,8.23
2023-05-23T21:44:27.081Z,11.17
2023-05-23T21:46:53.922Z,8.47
2023-05-23T21:49:20.735Z,7.67
2023-05-23T21:51:47.497Z,10.77
2023-05-23T21:54:14.347Z,9.87
2023-05-23T21:56:41.490Z,11.43
2023-05-23T21:59:08.669Z,10.53
2023-05-23T22:01:35.679Z,12.77
2023-05-23T22:04:02.528Z,11.87
2023-05-23T22:06:29.293Z,14.33
2023-05-23T22:08:55.990Z,12.30
2023-05-23T22:11:22.722Z,9.03
2023-05-23T22:14:01.311Z,15.63
2023-05-23T22:16:29.031Z,11.40
2023-05-23T22:18:58.147Z,10.37
2023-05-23T22:21:25.786Z,14.47
2023-05-23T22:23:53.175Z,9.60
2023-05-23T22:26:20.715Z,15.40
2023-05-23T22:28:47.659Z,12.87
2023-05-23T22:31:15.135Z,14.17
2023-05-23T22:33:42.587Z,15.77
2023-05-23T22:36:10.012Z,13.27
2023-05-23T22:38:37.727Z,11.07
2023-05-23T22:41:04.928Z,12.80
2023-05-23T22:43:31.776Z,10.50
2023-05-23T22:45:58.477Z,13.43
2023-05-23T22:48:25.921Z,12.40
2023-05-23T22:50:57.026Z,12.80
2023-05-23T22:53:24.129Z,12.37
2023-05-23T22:55:51.006Z,12.73
2023-05-23T22:58:17.994Z,13.07
2023-05-23T23:00:45.374Z,10.33
2023-05-23T23:03:12.885Z,9.27
2023-05-23T23:05:39.709Z,9.27
2023-05-23T23:08:06.555Z,8.90
2023-05-23T23:10:33.359Z,10.00
2023-05-23T23:13:00.077Z,15.20
2023-05-23T23:15:26.789Z,12.73
2023-05-23T23:17:53.540Z,12.57
2023-05-23T23:20:22.402Z,13.30
2023-05-23T23:22:49.231Z,12.43
2023-05-23T23:25:18.806Z,12.93
2023-05-23T23:27:45.667Z,12.87
2023-05-23T23:30:12.799Z,10.90
2023-05-23T23:32:39.541Z,11.60
2023-05-23T23:35:06.878Z,13.40
2023-05-23T23:37:33.994Z,13.87
2023-05-23T23:40:00.732Z,18.03
2023-05-23T23:42:27.430Z,12.80
2023-05-23T23:44:54.218Z,10.93
2023-05-23T23:47:21.008Z,9.13
2023-05-23T23:49:47.723Z,11.90
2023-05-23T23:52:14.941Z,14.30
2023-05-23T23:54:41.672Z,9.07
2023-05-23T23:57:13.569Z,11.93
2023-05-23T23:59:41.678Z,8.67
